Time;durP1;ratioP1;P1;durP2;ratioP2;P2;SDS_P1;SDS_P2;PMS_P1;PMS_P2;Temp;Humidity;BMP_temperature;BMP_pressure;BME280_temperature;BME280_humidity;BME280_pressure;Samples;Min_cycle;Max_cycle;Signal;HPM_P1;HPM_P2
2023/12/04 00:01:00;;;;;;;9.80;3.40;;;;;;;-2.75;100.00;100065.75;107561;1277;73702;-65
2023/12/04 00:03:48;;;;;;;8.80;2.70;;;;;;;-2.77;100.00;100063.91;107742;1277;66660;-66
2023/12/04 00:06:36;;;;;;;7.60;2.90;;;;;;;-2.74;100.00;100074.77;107735;1276;73922;-64
2023/12/04 00:09:24;;;;;;;8.30;3.00;;;;;;;-2.73;100.00;100073.36;107492;1279;58091;-63
2023/12/04 00:12:13;;;;;;;7.00;2.80;;;;;;;-2.71;100.00;100075.58;107517;1279;58765;-64
2023/12/04 00:15:00;;;;;;;8.90;3.20;;;;;;;-2.70;100.00;100075.03;106769;1278;1002463;-64
2023/12/04 00:17:48;;;;;;;10.10;3.10;;;;;;;-2.69;100.00;100076.91;107562;1279;67845;-64
2023/12/04 00:20:36;;;;;;;8.30;3.20;;;;;;;-2.69;100.00;100079.52;107550;1281;71466;-63
2023/12/04 00:23:24;;;;;;;9.20;3.10;;;;;;;-2.71;100.00;100073.14;107520;1279;58553;-64
2023/12/04 00:26:13;;;;;;;11.20;2.80;;;;;;;-2.64;100.00;100078.02;107589;1278;61078;-63
2023/12/04 00:29:00;;;;;;;7.90;2.90;;;;;;;-2.66;100.00;100073.36;107509;1279;72554;-63
2023/12/04 00:31:48;;;;;;;9.50;3.40;;;;;;;-2.59;100.00;100080.84;107358;1282;66920;-65
2023/12/04 00:34:36;;;;;;;8.70;3.20;;;;;;;-2.56;100.00;100081.83;107565;1277;72833;-66
2023/12/04 00:37:24;;;;;;;8.50;3.20;;;;;;;-2.55;100.00;100079.89;106656;1279;1002260;-64
2023/12/04 00:40:12;;;;;;;9.10;2.90;;;;;;;-2.53;100.00;100081.25;107506;1278;60047;-64
2023/12/04 00:43:00;;;;;;;9.60;3.00;;;;;;;-2.53;100.00;100078.27;107562;1278;73653;-66
2023/12/04 00:45:47;;;;;;;9.10;3.00;;;;;;;-2.53;100.00;100079.68;107506;1278;66866;-64
2023/12/04 00:48:35;;;;;;;7.60;2.80;;;;;;;-2.52;100.00;100079.31;106720;1279;1002599;-65
2023/12/04 00:51:51;;;;;;;9.30;3.90;;;;;;;-2.56;100.00;100073.83;107184;1280;58614;-65
2023/12/04 00:56:07;;;;;;;8.00;3.30;;;;;;;-2.51;100.00;100085.55;106997;1282;60291;-66
2023/12/04 01:00:17;;;;;;;8.30;3.10;;;;;;;-2.53;100.00;100088.54;106792;1283;73705;-65
2023/12/04 01:04:02;;;;;;;9.50;3.20;;;;;;;-2.60;100.00;100090.61;106647;1286;67824;-66
2023/12/04 01:07:05;;;;;;;7.30;2.70;;;;;;;-2.58;100.00;100094.04;106588;1285;72865;-66
2023/12/04 01:09:53;;;;;;;7.50;2.80;;;;;;;-2.59;100.00;100098.92;105920;1286;1002870;-64
2023/12/04 01:12:41;;;;;;;6.70;2.30;;;;;;;-2.61;100.00;100101.05;106815;1287;60693;-63
2023/12/04 01:15:29;;;;;;;6.70;2.70;;;;;;;-2.65;100.00;100102.71;106781;1286;75215;-66
2023/12/04 01:18:18;;;;;;;8.40;2.50;;;;;;;-2.70;100.00;100102.30;106737;1286;66761;-65
2023/12/04 01:21:08;;;;;;;8.20;2.40;;;;;;;-2.78;100.00;100110.45;107229;1281;71158;-63
2023/12/04 01:23:56;;;;;;;7.00;2.10;;;;;;;-2.87;100.00;100113.96;107163;1281;58968;-63
2023/12/04 01:26:44;;;;;;;7.50;3.00;;;;;;;-2.96;100.00;100120.55;107034;1282;58749;-63
2023/12/04 01:29:32;;;;;;;7.70;2.80;;;;;;;-3.01;100.00;100118.60;107157;1281;72479;-65
2023/12/04 01:32:20;;;;;;;8.60;3.30;;;;;;;-3.06;100.00;100122.88;106552;1280;1002963;-63
2023/12/04 01:35:08;;;;;;;7.40;2.70;;;;;;;-3.08;100.00;100119.61;107552;1279;72523;-63
2023/12/04 01:37:56;;;;;;;8.20;3.40;;;;;;;-3.08;100.00;100122.21;107401;1279;58896;-63
2023/12/04 01:40:44;;;;;;;8.10;2.50;;;;;;;-3.08;100.00;100125.33;106669;1278;1002275;-64
2023/12/04 01:43:32;;;;;;;7.10;2.30;;;;;;;-3.08;100.00;100122.20;107097;1282;73892;-64
2023/12/04 01:46:20;;;;;;;7.40;2.50;;;;;;;-3.05;100.00;100120.23;107459;1279;67853;-62
2023/12/04 01:49:08;;;;;;;7.30;2.50;;;;;;;-3.04;100.00;100120.92;106696;1279;1002501;-64
2023/12/04 01:51:56;;;;;;;6.90;2.60;;;;;;;-3.04;100.00;100121.79;107445;1278;58525;-63
2023/12/04 01:54:44;;;;;;;9.80;2.80;;;;;;;-3.03;100.00;100118.13;106846;1277;1002912;-64
2023/12/04 01:57:32;;;;;;;8.20;2.80;;;;;;;-3.02;100.00;100116.54;107605;1279;74117;-63
2023/12/04 02:00:21;;;;;;;8.10;2.80;;;;;;;-3.01;100.00;100118.60;106835;1278;1015160;-65
2023/12/04 02:03:09;;;;;;;6.30;2.20;;;;;;;-3.04;100.00;100111.20;107394;1278;72391;-64
2023/12/04 02:06:02;;;;;;;8.10;2.80;;;;;;;-3.03;100.00;100117.25;107563;1279;58539;-62
2023/12/04 02:08:50;;;;;;;7.40;2.60;;;;;;;-3.11;100.00;100112.20;107453;1279;59214;-63
2023/12/04 02:11:39;;;;;;;7.20;2.70;;;;;;;-3.07;100.00;100116.13;107597;1279;74857;-64
2023/12/04 02:14:26;;;;;;;7.30;2.60;;;;;;;-3.09;100.00;100113.90;107475;1279;67901;-64
2023/12/04 02:17:16;;;;;;;8.50;2.50;;;;;;;-3.11;100.00;100113.95;107579;1279;73651;-65
2023/12/04 02:20:05;;;;;;;8.00;2.90;;;;;;;-3.16;100.00;100114.57;107540;1279;58621;-64
2023/12/04 02:22:53;;;;;;;7.90;2.50;;;;;;;-3.22;100.00;100122.31;107446;1278;61478;-64
2023/12/04 02:25:41;;;;;;;8.80;3.10;;;;;;;-3.27;100.00;100118.96;107494;1278;73862;-64
2023/12/04 02:28:34;;;;;;;7.60;2.60;;;;;;;-3.27;100.00;100123.46;107363;1277;66677;-65
2023/12/04 02:31:24;;;;;;;8.00;2.60;;;;;;;-3.23;100.00;100118.70;107473;1279;71482;-64
2023/12/04 02:34:14;;;;;;;9.20;3.00;;;;;;;-3.19;100.00;100122.96;107575;1279;58219;-63
2023/12/04 02:37:04;;;;;;;8.40;2.70;;;;;;;-3.16;100.00;100118.20;106724;1279;1002372;-64
2023/12/04 02:39:55;;;;;;;8.50;2.90;;;;;;;-3.13;100.00;100119.37;107599;1278;73808;-65
2023/12/04 02:42:44;;;;;;;8.20;2.20;;;;;;;-3.15;100.00;100112.12;107655;1278;65811;-63
2023/12/04 02:45:32;;;;;;;8.00;2.60;;;;;;;-3.14;100.00;100120.60;107482;1279;73724;-63
2023/12/04 02:48:20;;;;;;;7.60;2.10;;;;;;;-3.18;100.00;100119.29;107597;1278;58202;-63
2023/12/04 02:51:11;;;;;;;8.20;2.70;;;;;;;-3.22;99.99;100128.92;107609;1279;61019;-65
2023/12/04 02:53:58;;;;;;;9.10;2.70;;;;;;;-3.27;99.91;100129.89;107619;1278;73591;-65
2023/12/04 02:56:46;;;;;;;9.50;2.90;;;;;;;-3.32;99.70;100133.64;107409;1278;66548;-62
2023/12/04 02:59:33;;;;;;;7.90;3.00;;;;;;;-3.37;99.41;100135.45;107457;1278;70760;-64
2023/12/04 03:02:21;;;;;;;9.80;2.70;;;;;;;-3.42;98.92;100136.42;107571;1279;59842;-63
2023/12/04 03:05:09;;;;;;;8.80;2.70;;;;;;;-3.49;98.43;100134.29;107515;1278;59048;-65
2023/12/04 03:07:57;;;;;;;7.30;2.30;;;;;;;-3.55;98.47;100132.33;107622;1278;74880;-65
2023/12/04 03:10:45;;;;;;;7.50;2.40;;;;;;;-3.64;98.08;100134.41;107509;1279;69030;-65
2023/12/04 03:13:34;;;;;;;12.10;2.70;;;;;;;-3.75;98.17;100138.59;107567;1278;71613;-65
2023/12/04 03:16:22;;;;;;;7.60;2.40;;;;;;;-3.86;98.23;100137.73;107287;1277;58557;-65
2023/12/04 03:19:09;;;;;;;8.40;2.50;;;;;;;-3.96;98.09;100140.67;107559;1277;59041;-63
2023/12/04 03:21:57;;;;;;;9.70;3.40;;;;;;;-4.05;98.54;100145.34;107381;1278;74481;-65
2023/12/04 03:24:46;;;;;;;9.10;2.50;;;;;;;-4.15;98.32;100147.21;107622;1278;67694;-65
2023/12/04 03:27:34;;;;;;;8.00;2.60;;;;;;;-4.22;98.43;100145.27;107595;1279;72791;-66
2023/12/04 03:30:22;;;;;;;8.60;2.60;;;;;;;-4.31;98.28;100142.63;107556;1278;60183;-64
2023/12/04 03:33:10;;;;;;;9.20;3.10;;;;;;;-4.37;98.55;100142.89;107612;1277;60315;-63
2023/12/04 03:35:59;;;;;;;7.90;2.60;;;;;;;-4.45;98.80;100142.14;107586;1279;75109;-64
2023/12/04 03:38:47;;;;;;;7.70;2.70;;;;;;;-4.51;98.83;100140.15;107296;1279;68102;-65
2023/12/04 03:41:35;;;;;;;8.90;2.80;;;;;;;-4.56;99.22;100141.27;107613;1277;73597;-64
2023/12/04 03:44:23;;;;;;;8.20;2.60;;;;;;;-4.62;99.37;100142.38;107507;1277;58119;-63
2023/12/04 03:47:11;;;;;;;10.20;2.90;;;;;;;-4.68;99.41;100144.90;106727;1280;1002594;-65
2023/12/04 03:49:59;;;;;;;7.90;2.70;;;;;;;-4.79;99.76;100135.17;107635;1278;74600;-65
2023/12/04 03:52:47;;;;;;;8.90;2.70;;;;;;;-4.83;99.82;100138.17;107626;1278;66678;-64
2023/12/04 03:55:35;;;;;;;9.80;2.70;;;;;;;-4.84;100.00;100143.90;107595;1277;72729;-64
2023/12/04 03:58:23;;;;;;;10.10;3.40;;;;;;;-4.90;100.00;100145.36;107575;1281;59519;-64
2023/12/04 04:01:10;;;;;;;7.40;2.80;;;;;;;-4.93;100.00;100148.35;107396;1278;59130;-66
2023/12/04 04:03:58;;;;;;;8.60;3.10;;;;;;;-4.95;100.00;100147.50;106709;1279;1002400;-65
2023/12/04 04:06:46;;;;;;;11.00;3.20;;;;;;;-4.96;100.00;100149.93;107627;1278;65818;-63
2023/12/04 04:09:34;;;;;;;9.90;3.40;;;;;;;-4.97;100.00;100156.34;107607;1278;73021;-64
2023/12/04 04:12:22;;;;;;;8.90;3.30;;;;;;;-5.00;100.00;100153.96;107601;1278;58103;-65
2023/12/04 04:15:10;;;;;;;9.20;3.10;;;;;;;-5.02;100.00;100153.99;107511;1278;59402;-64
2023/12/04 04:17:57;;;;;;;8.00;3.00;;;;;;;-5.02;100.00;100158.84;107434;1278;74839;-67
2023/12/04 04:20:46;;;;;;;8.20;3.00;;;;;;;-5.04;100.00;100160.25;106898;1278;1002977;-63
2023/12/04 04:23:33;;;;;;;10.30;3.30;;;;;;;-5.07;100.00;100164.09;107623;1278;72268;-65
2023/12/04 04:26:21;;;;;;;9.60;3.70;;;;;;;-5.10;100.00;100167.25;107617;1278;58627;-63
2023/12/04 04:29:09;;;;;;;8.70;3.10;;;;;;;-5.13;100.00;100163.98;107528;1278;58738;-66
2023/12/04 04:31:57;;;;;;;9.20;3.60;;;;;;;-5.13;100.00;100165.02;107508;1278;73895;-66
2023/12/04 04:34:45;;;;;;;9.60;3.40;;;;;;;-5.13;100.00;100167.63;107664;1278;68848;-67
2023/12/04 04:37:32;;;;;;;9.00;3.20;;;;;;;-5.14;100.00;100170.75;107654;1278;70337;-64
2023/12/04 04:40:20;;;;;;;7.70;2.60;;;;;;;-5.15;100.00;100169.71;107654;1277;58121;-65
2023/12/04 04:43:09;;;;;;;10.40;3.20;;;;;;;-5.18;100.00;100169.92;107395;1277;58320;-64
2023/12/04 04:45:58;;;;;;;7.60;2.70;;;;;;;-5.20;100.00;100170.66;107617;1278;73721;-64
2023/12/04 04:48:47;;;;;;;9.50;3.60;;;;;;;-5.25;100.00;100168.45;107471;1278;67681;-64
2023/12/04 04:51:35;;;;;;;8.90;3.10;;;;;;;-5.32;100.00;100167.66;107586;1278;72587;-65
2023/12/04 04:54:22;;;;;;;9.60;3.70;;;;;;;-5.37;100.00;100164.24;107449;1278;59607;-65
2023/12/04 04:57:10;;;;;;;8.50;3.40;;;;;;;-5.41;100.00;100171.91;106613;1278;1003006;-65
2023/12/04 04:59:58;;;;;;;12.80;3.80;;;;;;;-5.44;100.00;100174.02;106690;1278;1002698;-65
2023/12/04 05:02:46;;;;;;;11.20;4.50;;;;;;;-5.47;100.00;100173.52;107486;1276;67932;-66
2023/12/04 05:05:34;;;;;;;9.60;3.90;;;;;;;-5.49;100.00;100170.96;107701;1276;71133;-65
2023/12/04 05:08:21;;;;;;;14.80;5.80;;;;;;;-5.49;100.00;100171.30;107686;1276;59590;-64
2023/12/04 05:11:15;;;;;;;10.60;5.00;;;;;;;-5.49;100.00;100169.92;107685;1278;58980;-65
2023/12/04 05:14:06;;;;;;;11.50;4.80;;;;;;;-5.46;100.00;100173.70;107470;1278;72614;-65
2023/12/04 05:16:54;;;;;;;9.80;3.60;;;;;;;-5.50;100.00;100156.44;107635;1278;66329;-66
2023/12/04 05:19:42;;;;;;;9.20;3.50;;;;;;;-5.40;100.00;100172.77;106706;1278;1003005;-65
2023/12/04 05:22:30;;;;;;;9.00;3.70;;;;;;;-5.38;100.00;100171.02;107444;1279;58158;-65
2023/12/04 05:25:19;;;;;;;9.20;3.50;;;;;;;-5.34;100.00;100171.31;107629;1278;60382;-64
2023/12/04 05:28:07;;;;;;;9.50;3.90;;;;;;;-5.28;100.00;100167.11;107618;1278;72768;-64
2023/12/04 05:30:55;;;;;;;9.10;3.40;;;;;;;-5.21;100.00;100167.38;107414;1279;67865;-64
2023/12/04 05:33:43;;;;;;;11.10;4.10;;;;;;;-5.13;100.00;100174.20;107428;1279;71111;-63
2023/12/04 05:36:31;;;;;;;8.10;2.90;;;;;;;-5.02;100.00;100169.23;107275;1278;58681;-65
2023/12/04 05:39:19;;;;;;;8.10;2.70;;;;;;;-4.91;100.00;100162.17;106781;1278;1002477;-63
2023/12/04 05:42:07;;;;;;;8.70;3.30;;;;;;;-4.80;100.00;100162.36;107483;1278;73606;-64
2023/12/04 05:44:57;;;;;;;10.70;4.00;;;;;;;-4.69;100.00;100160.49;107564;1278;67614;-65
2023/12/04 05:47:45;;;;;;;9.50;3.80;;;;;;;-4.61;100.00;100155.52;107376;1277;72558;-65
2023/12/04 05:50:33;;;;;;;11.20;3.40;;;;;;;-4.50;100.00;100155.55;107383;1279;58138;-67
2023/12/04 05:53:20;;;;;;;7.90;3.30;;;;;;;-4.47;100.00;100145.81;107638;1278;58866;-66
2023/12/04 05:56:09;;;;;;;9.70;3.40;;;;;;;-4.47;100.00;100129.70;107449;1278;71505;-65
2023/12/04 05:58:57;;;;;;;9.20;3.70;;;;;;;-4.40;100.00;100141.22;107395;1279;65768;-64
2023/12/04 06:01:45;;;;;;;8.90;3.60;;;;;;;-4.45;100.00;100142.84;107535;1278;73349;-66
2023/12/04 06:04:33;;;;;;;11.30;4.00;;;;;;;-4.54;100.00;100145.21;107328;1278;58369;-66
2023/12/04 06:07:21;;;;;;;11.00;3.80;;;;;;;-4.62;100.00;100147.93;107490;1278;60118;-65
2023/12/04 06:10:09;;;;;;;11.30;4.30;;;;;;;-4.69;100.00;100146.13;107312;1278;73681;-65
2023/12/04 06:12:57;;;;;;;10.10;4.20;;;;;;;-4.74;100.00;100150.69;107594;1278;65596;-66
2023/12/04 06:15:46;;;;;;;9.20;3.50;;;;;;;-4.79;100.00;100155.95;106908;1281;71737;-63
2023/12/04 06:18:33;;;;;;;9.70;3.80;;;;;;;-4.83;100.00;100151.49;106979;1281;58260;-63
2023/12/04 06:21:21;;;;;;;9.80;3.80;;;;;;;-4.88;100.00;100152.78;107068;1280;59978;-67
2023/12/04 06:24:10;;;;;;;10.30;3.70;;;;;;;-4.96;100.00;100159.98;107188;1280;73676;-63
2023/12/04 06:26:58;;;;;;;11.40;3.80;;;;;;;-5.05;100.00;100163.56;107253;1281;66670;-63
2023/12/04 06:29:48;;;;;;;12.60;4.50;;;;;;;-5.16;100.00;100160.03;107048;1282;72466;-65
2023/12/04 06:32:40;;;;;;;12.20;7.00;;;;;;;-5.30;100.00;100155.19;107099;1280;59575;-68
2023/12/04 06:35:28;;;;;;;14.40;5.40;;;;;;;-5.32;100.00;100165.41;107207;1280;60432;-65
2023/12/04 06:38:19;;;;;;;11.90;4.40;;;;;;;-5.37;100.00;100164.77;107016;1280;74765;-64
2023/12/04 06:41:08;;;;;;;14.20;5.10;;;;;;;-5.45;100.00;100163.48;107096;1281;67938;-65
2023/12/04 06:43:57;;;;;;;11.90;4.20;;;;;;;-5.51;100.00;100156.79;107095;1281;72497;-66
2023/12/04 06:46:49;;;;;;;13.50;4.90;;;;;;;-5.57;100.00;100159.97;107141;1281;58221;-67
2023/12/04 06:49:37;;;;;;;9.70;3.80;;;;;;;-5.61;100.00;100161.39;107200;1281;58693;-64
2023/12/04 06:52:25;;;;;;;10.90;4.30;;;;;;;-5.69;100.00;100155.06;107085;1281;72329;-64
2023/12/04 06:55:13;;;;;;;11.90;4.60;;;;;;;-5.75;100.00;100154.27;107154;1279;68081;-64
2023/12/04 06:58:01;;;;;;;15.40;5.30;;;;;;;-5.85;100.00;100153.30;107480;1278;71506;-66
2023/12/04 07:00:49;;;;;;;15.40;6.00;;;;;;;-5.89;100.00;100156.30;107325;1278;59916;-63
2023/12/04 07:03:38;;;;;;;14.60;6.00;;;;;;;-5.89;100.00;100155.61;107384;1278;60404;-64
2023/12/04 07:06:25;;;;;;;16.80;6.20;;;;;;;-5.87;100.00;100156.45;107423;1279;73983;-66
2023/12/04 07:09:16;;;;;;;19.80;7.90;;;;;;;-5.83;100.00;100162.63;107365;1279;67809;-66
2023/12/04 07:12:05;;;;;;;17.10;6.20;;;;;;;-5.76;100.00;100161.89;107343;1278;72759;-66
2023/12/04 07:14:53;;;;;;;13.00;5.00;;;;;;;-5.70;100.00;100160.09;107469;1278;58183;-66
2023/12/04 07:17:41;;;;;;;18.00;6.50;;;;;;;-5.64;100.00;100157.80;107436;1279;60072;-63
2023/12/04 07:20:28;;;;;;;15.60;5.40;;;;;;;-5.56;100.00;100165.32;107446;1278;72773;-64
2023/12/04 07:23:16;;;;;;;16.90;6.30;;;;;;;-5.47;100.00;100164.70;107283;1278;67272;-65
2023/12/04 07:26:06;;;;;;;20.60;8.20;;;;;;;-5.37;100.00;100161.67;106786;1278;1002373;-64
2023/12/04 07:28:54;;;;;;;16.30;6.80;;;;;;;-5.26;100.00;100157.05;107353;1278;58236;-66
2023/12/04 07:31:42;;;;;;;21.70;8.50;;;;;;;-5.07;100.00;100160.80;107403;1278;60681;-65
2023/12/04 07:34:31;;;;;;;20.80;6.50;;;;;;;-4.93;100.00;100162.88;107392;1278;73569;-65
2023/12/04 07:37:19;;;;;;;15.30;5.70;;;;;;;-4.81;100.00;100163.59;107594;1278;68698;-63
2023/12/04 07:40:08;;;;;;;17.30;6.70;;;;;;;-4.70;100.00;100161.36;107458;1278;71351;-65
2023/12/04 07:42:56;;;;;;;20.60;6.90;;;;;;;-4.62;100.00;100165.41;107441;1278;59838;-64
2023/12/04 07:45:44;;;;;;;21.30;7.50;;;;;;;-4.54;100.00;100166.70;107643;1277;59163;-65
2023/12/04 07:48:32;;;;;;;15.30;5.20;;;;;;;-4.45;100.00;100169.16;107400;1278;72641;-64
2023/12/04 07:51:21;;;;;;;19.90;7.80;;;;;;;-4.35;100.00;100161.56;107446;1278;66502;-67
2023/12/04 07:54:09;;;;;;;18.70;7.20;;;;;;;-4.23;100.00;100167.29;107342;1278;70654;-67
2023/12/04 07:56:57;;;;;;;19.80;7.70;;;;;;;-4.09;100.00;100171.74;107409;1278;58127;-63
2023/12/04 07:59:44;;;;;;;18.30;7.50;;;;;;;-3.96;100.00;100165.48;107557;1278;59084;-65
2023/12/04 08:02:34;;;;;;;21.40;8.00;;;;;;;-3.85;100.00;100164.95;107445;1278;74855;-63
2023/12/04 08:05:22;;;;;;;21.60;9.00;;;;;;;-3.73;100.00;100170.11;107434;1277;67674;-67
2023/12/04 08:08:10;;;;;;;25.90;9.60;;;;;;;-3.61;100.00;100169.55;107439;1278;71440;-62
2023/12/04 08:10:58;;;;;;;24.30;9.70;;;;;;;-3.46;100.00;100173.80;107595;1278;60052;-67
2023/12/04 08:13:45;;;;;;;21.50;9.40;;;;;;;-3.26;100.00;100177.07;107629;1278;58803;-68
2023/12/04 08:16:33;;;;;;;22.90;9.30;;;;;;;-2.82;100.00;100174.98;107640;1277;73922;-68
2023/12/04 08:19:22;;;;;;;25.90;10.80;;;;;;;-2.43;100.00;100172.23;107503;1278;68041;-68
2023/12/04 08:22:11;;;;;;;25.10;10.00;;;;;;;-1.93;100.00;100164.79;107408;1277;73450;-68
2023/12/04 08:24:59;;;;;;;23.30;10.20;;;;;;;-1.25;100.00;100170.70;107262;1277;59549;-66
2023/12/04 08:27:47;;;;;;;23.30;11.30;;;;;;;-0.47;96.23;100166.74;107626;1278;59546;-67
2023/12/04 08:30:35;;;;;;;22.30;10.20;;;;;;;-0.21;95.11;100171.33;107601;1278;73673;-68
2023/12/04 08:33:23;;;;;;;24.00;11.00;;;;;;;0.41;91.77;100166.88;107667;1278;66490;-65
2023/12/04 08:36:11;;;;;;;22.00;10.70;;;;;;;1.43;89.82;100155.16;107409;1278;72466;-66
2023/12/04 08:38:59;;;;;;;19.20;9.70;;;;;;;2.35;84.96;100159.20;107480;1278;58171;-65
2023/12/04 08:41:47;;;;;;;21.40;10.30;;;;;;;2.53;82.09;100151.96;107536;1276;58768;-65
2023/12/04 08:44:48;;;;;;;20.30;10.00;;;;;;;2.55;79.30;100153.61;107692;1276;73485;-68
2023/12/04 08:47:36;;;;;;;17.80;8.80;;;;;;;2.03;78.88;100157.87;107765;1277;68803;-67
2023/12/04 08:50:25;;;;;;;17.80;9.30;;;;;;;1.51;79.91;100161.31;107545;1276;72519;-66
2023/12/04 08:53:13;;;;;;;22.00;10.60;;;;;;;1.08;80.53;100166.45;107736;1277;58156;-69
2023/12/04 08:56:02;;;;;;;20.80;9.50;;;;;;;0.70;82.14;100176.88;107740;1276;60209;-66
2023/12/04 08:58:50;;;;;;;21.20;10.40;;;;;;;0.57;83.93;100177.16;107420;1276;73674;-68
2023/12/04 09:01:39;;;;;;;22.30;10.80;;;;;;;0.47;85.93;100183.42;107657;1277;68215;-64
2023/12/04 09:04:27;;;;;;;21.70;9.90;;;;;;;0.32;86.15;100185.31;107715;1276;72366;-64
2023/12/04 09:07:15;;;;;;;21.30;10.00;;;;;;;0.25;86.93;100186.27;107471;1277;58300;-64
2023/12/04 09:10:06;;;;;;;18.90;9.00;;;;;;;0.18;87.78;100185.09;106816;1276;1002218;-64
2023/12/04 09:13:03;;;;;;;20.10;9.00;;;;;;;0.38;88.35;100182.69;107701;1276;74599;-64
2023/12/04 09:15:51;;;;;;;19.10;9.20;;;;;;;0.29;87.02;100191.04;107412;1276;66746;-65
2023/12/04 09:18:39;;;;;;;18.50;9.20;;;;;;;0.05;87.65;100193.38;107650;1276;72715;-62
2023/12/04 09:21:27;;;;;;;18.00;7.70;;;;;;;-0.07;88.89;100195.33;106916;1276;1002314;-65
2023/12/04 09:24:15;;;;;;;18.50;8.30;;;;;;;-0.05;89.45;100192.30;107544;1276;58262;-65
2023/12/04 09:27:06;;;;;;;17.40;8.20;;;;;;;-0.20;90.19;100186.84;107722;1277;73009;-63
2023/12/04 09:29:54;;;;;;;17.00;7.50;;;;;;;0.15;91.02;100185.71;107406;1276;67877;-65
2023/12/04 09:32:42;;;;;;;16.90;7.60;;;;;;;0.20;89.61;100182.07;107493;1276;73689;-65
2023/12/04 09:35:31;;;;;;;16.20;7.50;;;;;;;0.21;89.31;100184.98;107719;1276;59202;-63
2023/12/04 09:38:19;;;;;;;14.30;7.40;;;;;;;0.60;89.49;100184.75;107711;1276;60517;-64
2023/12/04 09:41:10;;;;;;;14.50;7.10;;;;;;;1.49;88.56;100173.63;107521;1276;72580;-63
2023/12/04 09:43:58;;;;;;;13.50;7.00;;;;;;;1.51;84.69;100177.95;107528;1277;66601;-62
2023/12/04 09:46:48;;;;;;;13.80;6.80;;;;;;;1.87;84.56;100177.41;106754;1277;1003035;-65
2023/12/04 09:49:36;;;;;;;14.00;6.90;;;;;;;2.47;83.20;100173.89;107476;1276;58137;-62
2023/12/04 09:52:27;;;;;;;13.80;7.20;;;;;;;4.54;77.20;100166.56;107520;1276;61066;-62
2023/12/04 09:55:16;;;;;;;13.60;7.00;;;;;;;6.81;71.78;100155.94;107466;1277;74609;-64
2023/12/04 09:58:05;;;;;;;12.90;7.10;;;;;;;8.63;65.01;100153.17;107741;1276;66743;-63
2023/12/04 10:00:54;;;;;;;13.10;7.10;;;;;;;9.97;56.70;100138.95;107565;1277;73334;-64
2023/12/04 10:03:43;;;;;;;13.90;7.20;;;;;;;11.26;52.02;100137.02;107411;1276;58469;-64
2023/12/04 10:06:31;;;;;;;11.50;6.50;;;;;;;11.99;47.67;100134.52;107428;1276;61374;-64
2023/12/04 10:09:22;;;;;;;12.30;6.90;;;;;;;12.48;46.04;100134.33;107438;1277;73612;-62
2023/12/04 10:12:10;;;;;;;11.00;6.30;;;;;;;11.61;44.28;100132.23;107733;1276;68892;-67
2023/12/04 10:15:12;;;;;;;12.20;7.10;;;;;;;9.78;46.73;100138.02;107551;1276;72797;-61
2023/12/04 10:18:00;;;;;;;12.30;7.20;;;;;;;8.34;49.99;100143.81;107447;1276;58676;-64
2023/12/04 10:20:55;;;;;;;13.50;7.10;;;;;;;7.28;52.66;100141.13;107713;1277;61272;-62
2023/12/04 10:23:44;;;;;;;12.70;6.90;;;;;;;7.29;54.44;100134.70;107321;1276;73480;-62
2023/12/04 10:26:32;;;;;;;12.60;6.60;;;;;;;6.67;54.51;100137.41;107544;1279;66748;-63
2023/12/04 10:29:20;;;;;;;14.10;7.50;;;;;;;5.82;57.04;100135.15;107565;1276;73324;-65
2023/12/04 10:32:08;;;;;;;12.90;6.80;;;;;;;6.11;58.04;100137.52;107542;1276;58133;-64
2023/12/04 10:34:56;;;;;;;11.70;6.80;;;;;;;7.76;55.04;100134.52;107525;1276;59146;-62
2023/12/04 10:37:44;;;;;;;13.90;7.50;;;;;;;8.23;52.72;100137.66;107481;1276;73627;-62
2023/12/04 10:40:34;;;;;;;12.50;7.20;;;;;;;9.30;51.19;100134.39;107501;1277;66456;-63
2023/12/04 10:43:23;;;;;;;14.20;7.90;;;;;;;10.49;47.45;100133.70;107412;1276;72483;-66
2023/12/04 10:46:12;;;;;;;15.30;8.30;;;;;;;10.30;46.33;100129.41;107708;1276;58257;-63
2023/12/04 10:49:01;;;;;;;14.90;8.10;;;;;;;9.37;48.12;100137.13;107612;1276;60334;-66
2023/12/04 10:51:49;;;;;;;14.80;8.30;;;;;;;8.96;48.67;100136.08;107782;1277;73624;-63
2023/12/04 10:54:37;;;;;;;19.80;10.10;;;;;;;9.67;47.33;100125.07;107547;1279;68683;-62
2023/12/04 10:57:38;;;;;;;18.10;10.30;;;;;;;10.03;46.46;100129.34;107521;1277;70186;-63
2023/12/04 11:00:28;;;;;;;17.90;9.70;;;;;;;10.81;45.72;100131.95;107540;1276;59329;-64
2023/12/04 11:03:20;;;;;;;18.80;10.40;;;;;;;11.72;43.41;100129.04;107489;1277;59434;-64
2023/12/04 11:06:11;;;;;;;18.60;9.70;;;;;;;12.13;42.43;100133.21;106989;1276;1002509;-64
2023/12/04 11:09:01;;;;;;;15.80;9.60;;;;;;;11.74;41.88;100129.66;107542;1276;67747;-64
2023/12/04 11:11:57;;;;;;;15.60;9.50;;;;;;;12.13;41.33;100132.00;107484;1276;72769;-62
2023/12/04 11:14:53;;;;;;;13.20;8.20;;;;;;;12.45;40.40;100132.29;107446;1276;58119;-68
2023/12/04 11:17:45;;;;;;;14.30;7.40;;;;;;;11.87;40.90;100133.20;107407;1277;60245;-62
2023/12/04 11:20:53;;;;;;;14.60;8.20;;;;;;;10.72;41.94;100139.73;107548;1276;72373;-64
2023/12/04 11:23:42;;;;;;;14.10;8.10;;;;;;;9.20;44.86;100149.28;107424;1277;67732;-63
2023/12/04 11:26:31;;;;;;;14.70;7.20;;;;;;;8.99;45.76;100153.39;107735;1277;72456;-65
2023/12/04 11:29:19;;;;;;;14.70;7.30;;;;;;;7.69;47.41;100156.02;106927;1277;1002253;-64
2023/12/04 11:32:07;;;;;;;16.80;8.70;;;;;;;6.81;50.42;100158.27;107729;1276;60092;-63
2023/12/04 11:34:58;;;;;;;17.80;7.90;;;;;;;7.13;50.66;100156.19;107566;1276;208297;-62
2023/12/04 11:37:47;;;;;;;16.70;8.10;;;;;;;6.77;51.14;100154.32;107546;1277;66527;-63
2023/12/04 11:40:40;;;;;;;16.50;7.70;;;;;;;7.04;51.35;100155.33;107572;1278;70829;-62
2023/12/04 11:43:31;;;;;;;16.20;8.40;;;;;;;7.35;50.89;100150.73;107476;1280;58105;-62
2023/12/04 11:46:23;;;;;;;16.90;8.90;;;;;;;7.57;50.29;100151.80;107550;1276;59019;-65
2023/12/04 11:49:29;;;;;;;15.40;7.80;;;;;;;7.70;49.77;100149.74;107457;1277;74000;-63
2023/12/04 11:52:32;;;;;;;16.30;8.60;;;;;;;7.39;49.86;100152.04;107758;1276;67655;-64
2023/12/04 11:55:22;;;;;;;15.20;7.50;;;;;;;7.29;50.45;100154.33;107587;1277;72378;-64
2023/12/04 11:58:12;;;;;;;19.20;9.00;;;;;;;6.73;51.38;100156.15;107697;1277;58695;-64
2023/12/04 12:01:00;;;;;;;16.60;8.50;;;;;;;6.77;51.92;100154.64;107489;1276;61215;-66
2023/12/04 12:03:51;;;;;;;16.50;8.70;;;;;;;6.59;52.17;100153.95;107746;1277;72921;-63
2023/12/04 12:06:39;;;;;;;16.80;8.30;;;;;;;5.92;52.91;100156.39;107728;1278;68483;-65
2023/12/04 12:09:33;;;;;;;17.50;8.80;;;;;;;5.18;54.79;100163.11;107487;1276;73693;-64
2023/12/04 12:12:22;;;;;;;14.40;8.00;;;;;;;5.14;56.24;100154.69;107537;1279;58222;-65
2023/12/04 12:15:11;;;;;;;15.30;7.80;;;;;;;5.19;56.63;100153.02;107744;1278;59566;-70
2023/12/04 12:17:59;;;;;;;14.80;7.10;;;;;;;5.16;56.37;100147.88;107760;1278;73617;-67
2023/12/04 12:20:47;;;;;;;14.60;7.30;;;;;;;4.95;56.80;100152.36;107718;1276;66480;-64
2023/12/04 12:23:35;;;;;;;15.60;7.10;;;;;;;4.86;57.31;100148.60;107742;1276;73239;-66
2023/12/04 12:26:23;;;;;;;17.50;7.80;;;;;;;4.80;57.45;100142.74;107381;1277;58099;-66
2023/12/04 12:29:11;;;;;;;14.40;6.90;;;;;;;4.60;57.82;100143.11;107408;1277;61056;-65
2023/12/04 12:31:59;;;;;;;10.80;5.40;;;;;;;4.15;58.22;100144.27;107492;1276;74594;-63
2023/12/04 12:34:47;;;;;;;15.60;8.70;;;;;;;3.67;60.12;100141.38;107704;1277;67656;-63
2023/12/04 12:37:35;;;;;;;14.00;7.10;;;;;;;3.13;61.79;100139.81;107706;1277;72340;-63
2023/12/04 12:40:23;;;;;;;14.80;7.00;;;;;;;2.66;63.86;100142.97;107495;1277;58258;-64
2023/12/04 12:43:11;;;;;;;15.10;6.70;;;;;;;2.14;66.02;100142.19;107748;1278;59075;-63
2023/12/04 12:45:59;;;;;;;15.20;6.90;;;;;;;1.63;68.23;100143.71;107750;1278;71646;-64
2023/12/04 12:48:47;;;;;;;14.80;7.60;;;;;;;1.27;69.54;100144.07;107423;1278;69122;-65
2023/12/04 12:51:35;;;;;;;14.50;6.70;;;;;;;0.96;71.25;100147.84;106979;1278;1002411;-66